Terminal Aerodrome Forecast
Issued by NWS Topeka, KS

Home | Current Version | Previous Version | Graphics & Text | Print | Product List | Glossary On
Versions: 1 2 3 4 5 6 7 8 9 10 11 12 13 14 15 16 17 18 19 20 21 22
000
FTUS43 KTOP 152000 AAA
TAFTOP
TAF AMD
KTOP 152021Z 1520/1618 12012KT P6SM OVC018
     FM160700 11004KT 3SM BR SCT010 OVC014
     FM161700 12008KT P6SM SCT040=

USA.gov is the U.S. government's official web portal to all federal, state and local government web resources and services.